sensor_id;sensor_type;location;lat;lon;timestamp;pressure;altitude;pressure_sealevel;temperature;humidity
929;BME280;451;47.988;7.842;2023-03-04T00:00:45;99053.50;;;2.99;100.00
929;BME280;451;47.988;7.842;2023-03-04T00:09:50;99063.63;;;3.15;100.00
929;BME280;451;47.988;7.842;2023-03-04T00:18:53;99071.81;;;2.72;100.00
929;BME280;451;47.988;7.842;2023-03-04T00:27:57;99063.13;;;2.23;100.00
929;BME280;451;47.988;7.842;2023-03-04T00:37:01;99066.25;;;2.28;100.00
929;BME280;451;47.988;7.842;2023-03-04T00:46:06;99073.25;;;2.00;100.00
929;BME280;451;47.988;7.842;2023-03-04T00:55:09;99073.56;;;1.96;100.00
929;BME280;451;47.988;7.842;2023-03-04T01:04:13;99060.78;;;1.68;100.00
929;BME280;451;47.988;7.842;2023-03-04T01:13:16;99060.81;;;1.80;100.00
929;BME280;451;47.988;7.842;2023-03-04T01:22:20;99057.53;;;1.64;100.00
929;BME280;451;47.988;7.842;2023-03-04T01:31:23;99010.09;;;1.76;100.00
929;BME280;451;47.988;7.842;2023-03-04T01:40:29;99047.69;;;1.69;100.00
929;BME280;451;47.988;7.842;2023-03-04T01:49:32;99042.91;;;1.63;100.00
929;BME280;451;47.988;7.842;2023-03-04T01:58:37;98979.25;;;0.80;100.00
929;BME280;451;47.988;7.842;2023-03-04T02:07:41;98932.88;;;0.77;100.00
929;BME280;451;47.988;7.842;2023-03-04T02:16:49;99039.88;;;1.17;100.00
929;BME280;451;47.988;7.842;2023-03-04T02:26:07;99031.06;;;1.19;100.00
929;BME280;451;47.988;7.842;2023-03-04T02:35:13;98999.34;;;0.89;100.00
929;BME280;451;47.988;7.842;2023-03-04T02:44:21;99040.97;;;0.86;100.00
929;BME280;451;47.988;7.842;2023-03-04T02:53:24;99093.44;;;0.88;100.00
929;BME280;451;47.988;7.842;2023-03-04T03:02:29;99042.25;;;0.93;100.00
929;BME280;451;47.988;7.842;2023-03-04T03:11:33;99028.56;;;0.91;100.00
929;BME280;451;47.988;7.842;2023-03-04T03:20:38;99030.28;;;0.64;100.00
929;BME280;451;47.988;7.842;2023-03-04T03:29:41;99041.53;;;0.77;100.00
929;BME280;451;47.988;7.842;2023-03-04T03:38:45;99031.94;;;0.65;100.00
929;BME280;451;47.988;7.842;2023-03-04T03:47:48;99035.13;;;0.82;100.00
929;BME280;451;47.988;7.842;2023-03-04T03:56:52;99003.31;;;0.39;100.00
929;BME280;451;47.988;7.842;2023-03-04T04:05:55;99000.72;;;0.68;100.00
929;BME280;451;47.988;7.842;2023-03-04T04:15:00;98908.00;;;-0.80;100.00
929;BME280;451;47.988;7.842;2023-03-04T04:24:04;99062.06;;;0.52;100.00
929;BME280;451;47.988;7.842;2023-03-04T04:33:09;99051.34;;;0.72;100.00
929;BME280;451;47.988;7.842;2023-03-04T04:42:12;98987.09;;;0.09;100.00
929;BME280;451;47.988;7.842;2023-03-04T04:51:17;99049.50;;;0.46;100.00
929;BME280;451;47.988;7.842;2023-03-04T05:00:20;99057.81;;;0.36;100.00
929;BME280;451;47.988;7.842;2023-03-04T05:09:24;99055.22;;;0.22;100.00
929;BME280;451;47.988;7.842;2023-03-04T05:18:28;99016.25;;;0.11;100.00
929;BME280;451;47.988;7.842;2023-03-04T05:27:33;99023.47;;;0.06;100.00
929;BME280;451;47.988;7.842;2023-03-04T05:36:36;99049.88;;;-0.19;100.00
929;BME280;451;47.988;7.842;2023-03-04T05:45:41;99058.84;;;-0.10;100.00
929;BME280;451;47.988;7.842;2023-03-04T05:54:44;99063.78;;;0.09;100.00
929;BME280;451;47.988;7.842;2023-03-04T06:03:48;99071.41;;;-0.04;100.00
929;BME280;451;47.988;7.842;2023-03-04T06:12:51;99075.31;;;0.03;100.00
929;BME280;451;47.988;7.842;2023-03-04T06:21:55;99075.53;;;-0.16;100.00
929;BME280;451;47.988;7.842;2023-03-04T06:30:58;99085.75;;;0.16;100.00
929;BME280;451;47.988;7.842;2023-03-04T06:40:03;99055.47;;;0.04;100.00
929;BME280;451;47.988;7.842;2023-03-04T06:49:08;99118.50;;;0.01;100.00
929;BME280;451;47.988;7.842;2023-03-04T06:58:12;99085.03;;;0.28;100.00
929;BME280;451;47.988;7.842;2023-03-04T07:07:17;99119.50;;;0.43;100.00
929;BME280;451;47.988;7.842;2023-03-04T07:16:22;99128.28;;;1.38;100.00
929;BME280;451;47.988;7.842;2023-03-04T07:25:26;99115.28;;;2.06;100.00
929;BME280;451;47.988;7.842;2023-03-04T07:34:30;99051.47;;;1.90;100.00
929;BME280;451;47.988;7.842;2023-03-04T07:43:33;99072.88;;;2.57;100.00
929;BME280;451;47.988;7.842;2023-03-04T07:52:38;99154.63;;;3.01;100.00
929;BME280;451;47.988;7.842;2023-03-04T08:01:41;99165.34;;;3.09;100.00
929;BME280;451;47.988;7.842;2023-03-04T08:10:46;99166.78;;;3.13;100.00
929;BME280;451;47.988;7.842;2023-03-04T08:19:49;99172.28;;;2.45;100.00
929;BME280;451;47.988;7.842;2023-03-04T08:28:54;99136.97;;;2.17;100.00
929;BME280;451;47.988;7.842;2023-03-04T08:37:57;99192.56;;;2.65;100.00
929;BME280;451;47.988;7.842;2023-03-04T08:47:01;99171.13;;;2.24;100.00
929;BME280;451;47.988;7.842;2023-03-04T08:56:05;99186.47;;;3.53;100.00
929;BME280;451;47.988;7.842;2023-03-04T09:05:10;99185.75;;;3.39;100.00
929;BME280;451;47.988;7.842;2023-03-04T09:14:13;99191.91;;;3.98;94.82
929;BME280;451;47.988;7.842;2023-03-04T09:23:18;99175.31;;;4.46;92.35
929;BME280;451;47.988;7.842;2023-03-04T09:32:21;99186.72;;;4.68;89.84
929;BME280;451;47.988;7.842;2023-03-04T09:41:35;99174.59;;;3.86;94.09
929;BME280;451;47.988;7.842;2023-03-04T09:50:45;99184.56;;;3.92;93.28
929;BME280;451;47.988;7.842;2023-03-04T10:00:00;99171.50;;;4.51;89.47
929;BME280;451;47.988;7.842;2023-03-04T10:09:14;99202.66;;;3.93;93.97
929;BME280;451;47.988;7.842;2023-03-04T10:18:23;99183.78;;;3.79;96.98
929;BME280;451;47.988;7.842;2023-03-04T10:27:30;99186.75;;;4.09;92.93
929;BME280;451;47.988;7.842;2023-03-04T10:36:58;99166.84;;;4.67;89.58
929;BME280;451;47.988;7.842;2023-03-04T10:46:02;99162.63;;;4.99;84.67
929;BME280;451;47.988;7.842;2023-03-04T10:55:13;99170.09;;;4.46;85.68
929;BME280;451;47.988;7.842;2023-03-04T11:04:17;99176.88;;;4.60;88.88
929;BME280;451;47.988;7.842;2023-03-04T11:13:23;99157.06;;;6.23;78.70
929;BME280;451;47.988;7.842;2023-03-04T11:22:27;99136.63;;;6.49;78.27
929;BME280;451;47.988;7.842;2023-03-04T11:31:35;99149.88;;;6.36;77.20
929;BME280;451;47.988;7.842;2023-03-04T11:40:43;99130.50;;;5.75;78.23
929;BME280;451;47.988;7.842;2023-03-04T11:49:57;99113.94;;;6.29;78.25
929;BME280;451;47.988;7.842;2023-03-04T11:59:31;99103.28;;;6.62;75.51
929;BME280;451;47.988;7.842;2023-03-04T12:08:50;99022.47;;;6.40;75.87
929;BME280;451;47.988;7.842;2023-03-04T12:18:07;99069.94;;;6.03;77.22
929;BME280;451;47.988;7.842;2023-03-04T12:27:21;99080.22;;;5.41;84.70
929;BME280;451;47.988;7.842;2023-03-04T12:36:32;99039.06;;;5.56;84.28
929;BME280;451;47.988;7.842;2023-03-04T12:45:45;99028.19;;;6.03;85.17
929;BME280;451;47.988;7.842;2023-03-04T12:54:51;99017.03;;;6.22;79.63
929;BME280;451;47.988;7.842;2023-03-04T13:04:02;99005.13;;;6.69;77.43
929;BME280;451;47.988;7.842;2023-03-04T13:13:35;98995.38;;;7.31;75.75
929;BME280;451;47.988;7.842;2023-03-04T13:22:45;98962.06;;;7.04;74.30
929;BME280;451;47.988;7.842;2023-03-04T13:31:57;98973.78;;;7.28;72.75
929;BME280;451;47.988;7.842;2023-03-04T13:41:12;98937.44;;;7.54;72.05
929;BME280;451;47.988;7.842;2023-03-04T13:50:35;98956.56;;;7.45;71.72
929;BME280;451;47.988;7.842;2023-03-04T13:59:42;98969.06;;;7.70;70.76
929;BME280;451;47.988;7.842;2023-03-04T14:08:48;98945.72;;;8.53;67.85
929;BME280;451;47.988;7.842;2023-03-04T14:17:55;98933.00;;;9.20;63.79
929;BME280;451;47.988;7.842;2023-03-04T14:27:10;98921.84;;;8.56;61.31
929;BME280;451;47.988;7.842;2023-03-04T14:36:18;98873.78;;;8.37;60.85
929;BME280;451;47.988;7.842;2023-03-04T14:45:22;98866.22;;;8.62;58.97
929;BME280;451;47.988;7.842;2023-03-04T14:54:31;98895.34;;;8.31;59.67
929;BME280;451;47.988;7.842;2023-03-04T15:03:34;98871.28;;;8.18;60.24
929;BME280;451;47.988;7.842;2023-03-04T15:12:39;98891.53;;;8.16;59.54
929;BME280;451;47.988;7.842;2023-03-04T15:21:42;98882.97;;;8.14;61.62
929;BME280;451;47.988;7.842;2023-03-04T15:30:46;98887.53;;;8.12;60.89
929;BME280;451;47.988;7.842;2023-03-04T15:39:50;98902.19;;;7.20;63.81
929;BME280;451;47.988;7.842;2023-03-04T15:48:54;98900.97;;;7.14;64.95
929;BME280;451;47.988;7.842;2023-03-04T15:58:03;98911.81;;;6.91;65.47
929;BME280;451;47.988;7.842;2023-03-04T16:07:12;98911.50;;;6.65;66.21
929;BME280;451;47.988;7.842;2023-03-04T16:16:18;98917.19;;;6.30;67.82
929;BME280;451;47.988;7.842;2023-03-04T16:25:23;98920.47;;;6.32;68.14
929;BME280;451;47.988;7.842;2023-03-04T16:34:27;98915.59;;;6.48;69.27
929;BME280;451;47.988;7.842;2023-03-04T16:43:31;98912.34;;;5.95;70.35
929;BME280;451;47.988;7.842;2023-03-04T16:52:35;98924.50;;;5.64;70.97
929;BME280;451;47.988;7.842;2023-03-04T17:01:39;98865.06;;;5.16;71.53
929;BME280;451;47.988;7.842;2023-03-04T17:10:43;98945.56;;;5.19;72.13
929;BME280;451;47.988;7.842;2023-03-04T17:19:47;98934.03;;;5.01;73.36
929;BME280;451;47.988;7.842;2023-03-04T17:28:50;98954.00;;;4.80;74.53
929;BME280;451;47.988;7.842;2023-03-04T17:37:55;98973.22;;;4.68;75.55
929;BME280;451;47.988;7.842;2023-03-04T17:46:58;98974.84;;;4.58;76.36
929;BME280;451;47.988;7.842;2023-03-04T17:56:04;98967.78;;;4.49;78.27
929;BME280;451;47.988;7.842;2023-03-04T18:05:08;98992.59;;;4.19;79.75
929;BME280;451;47.988;7.842;2023-03-04T18:14:13;98989.06;;;4.31;80.92
929;BME280;451;47.988;7.842;2023-03-04T18:23:17;98997.59;;;4.11;80.26
929;BME280;451;47.988;7.842;2023-03-04T18:32:22;99002.69;;;4.24;80.22
929;BME280;451;47.988;7.842;2023-03-04T18:41:25;98996.28;;;4.50;79.18
929;BME280;451;47.988;7.842;2023-03-04T18:50:30;99008.47;;;4.61;78.91
929;BME280;451;47.988;7.842;2023-03-04T18:59:37;99010.09;;;4.06;81.24
929;BME280;451;47.988;7.842;2023-03-04T19:08:43;99021.69;;;4.13;80.63
929;BME280;451;47.988;7.842;2023-03-04T19:17:45;99021.69;;;4.13;80.86
929;BME280;451;47.988;7.842;2023-03-04T19:26:50;99027.22;;;3.97;80.37
929;BME280;451;47.988;7.842;2023-03-04T19:35:53;99023.84;;;4.30;80.28
929;BME280;451;47.988;7.842;2023-03-04T19:44:57;99024.53;;;4.21;78.56
929;BME280;451;47.988;7.842;2023-03-04T19:54:02;99025.75;;;4.39;79.38
929;BME280;451;47.988;7.842;2023-03-04T20:03:06;99014.84;;;4.12;77.52
929;BME280;451;47.988;7.842;2023-03-04T20:12:10;99012.25;;;4.23;77.03
929;BME280;451;47.988;7.842;2023-03-04T20:21:14;98973.03;;;3.34;79.94
929;BME280;451;47.988;7.842;2023-03-04T20:30:18;99017.34;;;3.68;82.92
929;BME280;451;47.988;7.842;2023-03-04T20:39:22;99008.59;;;3.10;88.61
929;BME280;451;47.988;7.842;2023-03-04T20:48:25;99005.50;;;3.05;91.72
929;BME280;451;47.988;7.842;2023-03-04T20:57:30;99013.50;;;2.65;95.31
929;BME280;451;47.988;7.842;2023-03-04T21:06:33;99009.94;;;2.79;95.57
929;BME280;451;47.988;7.842;2023-03-04T21:15:45;99007.50;;;2.27;98.30
929;BME280;451;47.988;7.842;2023-03-04T21:24:48;98967.47;;;1.55;100.00
929;BME280;451;47.988;7.842;2023-03-04T21:33:53;98981.56;;;1.76;100.00
929;BME280;451;47.988;7.842;2023-03-04T21:42:59;98983.47;;;1.74;100.00
929;BME280;451;47.988;7.842;2023-03-04T21:52:03;98983.06;;;1.80;100.00
929;BME280;451;47.988;7.842;2023-03-04T22:01:10;98940.53;;;1.95;99.00
929;BME280;451;47.988;7.842;2023-03-04T22:10:16;98982.84;;;2.70;95.94
929;BME280;451;47.988;7.842;2023-03-04T22:19:18;98962.22;;;2.56;93.64
929;BME280;451;47.988;7.842;2023-03-04T22:28:23;98964.91;;;2.67;91.51
929;BME280;451;47.988;7.842;2023-03-04T22:37:28;98963.13;;;2.19;94.87
929;BME280;451;47.988;7.842;2023-03-04T22:46:35;98962.41;;;1.91;96.59
929;BME280;451;47.988;7.842;2023-03-04T22:55:38;98955.84;;;1.35;100.00
929;BME280;451;47.988;7.842;2023-03-04T23:04:42;98955.03;;;1.08;100.00
929;BME280;451;47.988;7.842;2023-03-04T23:13:46;98927.00;;;0.88;100.00
929;BME280;451;47.988;7.842;2023-03-04T23:22:50;98939.63;;;1.19;100.00
929;BME280;451;47.988;7.842;2023-03-04T23:31:53;98910.53;;;1.28;100.00
929;BME280;451;47.988;7.842;2023-03-04T23:40:57;98940.94;;;1.64;100.00
929;BME280;451;47.988;7.842;2023-03-04T23:50:00;98918.84;;;1.46;100.00
929;BME280;451;47.988;7.842;2023-03-04T23:59:05;98886.88;;;1.07;100.00
